CDT,Max TemperatureF,Mean TemperatureF,Min TemperatureF,Max Dew PointF,MeanDew PointF,Min DewpointF,Max Humidity, Mean Humidity, Min Humidity, Max Sea Level PressureIn, Mean Sea Level PressureIn, Min Sea Level PressureIn, Max VisibilityMiles, Mean VisibilityMiles, Min VisibilityMiles, Max Wind SpeedMPH, Mean Wind SpeedMPH, Max Gust SpeedMPH,PrecipitationIn, CloudCover, Events, WindDirDegrees
2013-7-1,82,70,59,64,54,45,94,59,28,30.26,30.22,30.19,10,10,7,7,1,,0.00,0,,37
2013-7-2,82,72,62,64,57,48,94,61,32,30.19,30.15,30.08,10,10,7,9,1,,0.00,0,,34
2013-7-3,82,73,64,63,57,50,94,60,32,30.08,30.02,29.93,10,10,10,10,5,16,0.00,0,,175
2013-7-4,86,74,62,59,57,54,77,54,33,29.93,29.84,29.77,10,10,10,17,9,22,0.00,0,,169
2013-7-5,86,78,69,64,62,59,73,59,43,29.81,29.78,29.77,10,10,10,13,9,17,0.00,0,,186
2013-7-6,75,72,68,70,67,64,94,86,78,29.86,29.83,29.80,10,10,3,13,4,17,0.08,1,Rain,141
2013-7-7,80,72,64,70,65,59,100,78,54,29.99,29.90,29.83,10,8,0,14,4,,0.00,1,Fog,343
2013-7-8,82,71,60,64,61,55,100,67,39,30.03,30.00,29.94,10,10,10,8,3,,0.00,0,,171
2013-7-9,75,68,59,70,64,55,100,82,68,30.04,29.91,29.78,10,9,2,18,8,25,0.30,4,Rain-Thunderstorm,318
2013-7-10,77,66,55,59,55,50,94,68,39,30.11,30.07,30.04,10,10,7,14,8,20,0.00,0,,294
2013-7-11,80,70,60,63,59,55,88,66,44,30.08,30.00,29.89,10,10,7,21,7,25,0.00,0,,167
2013-7-12,87,79,71,73,66,61,94,67,51,29.89,29.84,29.79,10,10,3,22,13,31,0.22,1,Rain-Thunderstorm,180
2013-7-13,80,74,69,72,70,68,100,87,70,30.03,29.97,29.88,10,9,0,13,4,17,0.00,4,Fog,117
2013-7-14,71,70,68,68,66,64,94,88,78,30.22,30.12,30.02,10,10,5,10,6,,0.01,5,Rain,143
2013-7-15,77,70,64,72,66,64,100,91,78,30.24,30.19,30.12,10,7,1,9,4,,0.42,4,Rain,136
2013-7-16,86,77,68,70,67,64,94,71,48,30.19,30.14,30.12,10,10,7,17,9,24,0.00,0,,200
2013-7-17,87,79,71,70,69,64,88,71,48,30.22,30.17,30.09,10,10,10,13,7,17,0.00,1,,205
2013-7-18,87,80,73,73,70,68,88,70,55,30.08,29.87,29.72,10,10,10,18,9,26,0.00,0,,219
2013-7-19,80,71,62,68,60,57,94,73,45,29.93,29.87,29.75,10,10,5,23,11,30,0.02,2,Rain-Thunderstorm,300
2013-7-20,71,65,59,61,54,50,94,70,52,30.03,29.98,29.92,10,10,10,8,4,,0.00,2,,11
2013-7-21,78,68,57,66,59,52,83,69,54,29.99,29.88,29.71,10,10,10,14,5,22,0.00,2,,145
2013-7-22,73,64,55,68,59,54,94,74,56,29.96,29.80,29.68,10,10,10,20,12,24,0.00,3,Rain-Thunderstorm,316
2013-7-23,73,62,51,55,52,46,100,71,43,30.07,30.03,29.96,10,10,10,9,5,9,0.00,0,,348
2013-7-24,78,66,55,61,55,50,94,68,41,30.09,30.02,29.93,10,10,10,13,2,16,0.00,1,Rain,260
2013-7-25,78,68,59,61,56,46,100,69,41,29.98,29.95,29.92,10,10,10,21,5,29,0.00,0,Thunderstorm,300
2013-7-26,66,60,53,54,50,45,94,75,49,30.18,30.09,29.96,10,10,3,20,12,29,0.10,5,Rain,352
2013-7-27,68,57,46,46,44,41,93,64,37,30.18,30.10,30.03,10,10,10,21,8,26,0.00,1,,353
2013-7-28,71,58,46,55,47,43,93,63,40,30.08,30.06,30.04,10,10,10,12,4,16,0.00,2,,353
2013-7-29,73,62,51,55,52,50,94,67,44,30.10,30.07,30.06,10,10,10,14,4,18,0.00,1,,186
2013-7-30,73,66,59,63,59,52,94,79,57,30.10,30.07,30.05,10,10,5,9,5,,0.00,5,Rain,251
2013-7-31,73,66,59,59,53,46,94,66,38,30.10,30.08,30.05,10,10,7,20,7,29,0.00,0,Rain,302